Time;durP1;ratioP1;P1;durP2;ratioP2;P2;SDS_P1;SDS_P2;PMS_P1;PMS_P2;Temp;Humidity;BMP_temperature;BMP_pressure;BME280_temperature;BME280_humidity;BME280_pressure;Samples;Min_cycle;Max_cycle;Signal;HPM_P1;HPM_P2
2023/08/06 00:01:47;;;;;;;8.48;5.70;;;;;;;15.43;100.00;100420.66;4987153;28;20030;-81
2023/08/06 00:04:12;;;;;;;7.78;5.05;;;;;;;15.35;100.00;100407.88;4988624;28;20031;-81
2023/08/06 00:06:37;;;;;;;8.85;6.38;;;;;;;15.34;100.00;100411.09;4988231;28;20029;-81
2023/08/06 00:09:03;;;;;;;9.35;5.10;;;;;;;15.55;100.00;100422.09;4987210;28;20344;-81
2023/08/06 00:11:28;;;;;;;10.25;5.40;;;;;;;15.25;100.00;100412.41;4988031;28;20142;-81
2023/08/06 00:13:54;;;;;;;7.60;4.97;;;;;;;15.38;100.00;100406.22;4977234;28;20349;-81
2023/08/06 00:16:19;;;;;;;8.00;4.60;;;;;;;15.35;100.00;100396.59;4977964;28;20467;-81
2023/08/06 00:18:45;;;;;;;7.13;5.25;;;;;;;15.30;100.00;100410.34;4990262;28;20026;-81
2023/08/06 00:21:12;;;;;;;8.93;5.35;;;;;;;15.48;100.00;100422.22;4989480;28;20030;-81
2023/08/06 00:23:37;;;;;;;13.82;5.70;;;;;;;15.41;100.00;100411.00;4987197;28;20493;-81
2023/08/06 00:26:03;;;;;;;11.55;6.82;;;;;;;15.39;100.00;100413.44;4986987;28;20031;-81
2023/08/06 00:28:28;;;;;;;9.23;5.78;;;;;;;15.17;100.00;100388.34;4985368;28;20443;-81
2023/08/06 00:30:57;;;;;;;10.63;5.90;;;;;;;15.21;100.00;100402.41;4986269;28;20039;-81
2023/08/06 00:33:23;;;;;;;8.30;5.70;;;;;;;15.24;100.00;100391.09;4988134;28;20045;-81
2023/08/06 00:35:49;;;;;;;8.57;5.45;;;;;;;15.51;100.00;100406.44;4977162;28;20056;-81
2023/08/06 00:38:15;;;;;;;10.77;5.75;;;;;;;15.28;100.00;100404.31;4981509;28;20034;-81
2023/08/06 00:40:40;;;;;;;10.40;5.85;;;;;;;15.22;100.00;100385.06;4983446;28;20031;-81
2023/08/06 00:43:06;;;;;;;9.23;5.70;;;;;;;15.28;100.00;100395.88;4978019;28;20031;-81
2023/08/06 00:45:35;;;;;;;12.00;5.97;;;;;;;15.33;100.00;100409.53;4993771;28;20026;-81
2023/08/06 00:48:01;;;;;;;7.82;5.75;;;;;;;15.39;100.00;100407.81;4970481;28;20030;-81
2023/08/06 00:50:27;;;;;;;8.15;5.28;;;;;;;15.27;100.00;100385.81;4981081;28;20498;-81
2023/08/06 00:52:53;;;;;;;6.65;4.55;;;;;;;15.44;100.00;100387.59;4981336;28;20153;-81
2023/08/06 00:55:18;;;;;;;8.77;5.85;;;;;;;15.31;100.00;100389.41;4966974;28;20030;-81
2023/08/06 00:57:44;;;;;;;8.68;5.82;;;;;;;15.42;100.00;100401.34;4979151;28;20037;-81
2023/08/06 01:00:10;;;;;;;8.75;5.50;;;;;;;15.49;100.00;100395.59;4993095;28;20042;-81
2023/08/06 01:02:36;;;;;;;8.02;5.03;;;;;;;15.38;100.00;100401.38;4961407;28;20488;-81
2023/08/06 01:05:02;;;;;;;9.13;5.07;;;;;;;15.46;100.00;100404.91;4985102;28;20525;-81
2023/08/06 01:07:31;;;;;;;8.45;5.72;;;;;;;15.49;100.00;100408.91;4985208;28;20026;-81
2023/08/06 01:10:23;;;;;;;7.43;5.63;;;;;;;15.42;100.00;100404.16;4989201;28;20118;-81
2023/08/06 01:13:01;;;;;;;8.40;5.80;;;;;;;15.38;100.00;100406.22;4982234;28;20031;-81
2023/08/06 01:15:30;;;;;;;6.75;4.70;;;;;;;15.12;100.00;100394.47;4985491;28;20038;-81
2023/08/06 01:17:57;;;;;;;12.00;6.05;;;;;;;15.32;100.00;100407.91;4986767;28;20093;-81
2023/08/06 01:20:28;;;;;;;7.80;5.10;;;;;;;15.32;100.00;100386.13;4980754;28;20026;-81
2023/08/06 01:22:54;;;;;;;8.90;5.45;;;;;;;15.45;100.00;100406.13;4993470;28;20034;-81
2023/08/06 01:25:19;;;;;;;8.52;5.00;;;;;;;15.17;100.00;100385.53;4983262;28;20030;-81
2023/08/06 01:27:49;;;;;;;7.90;5.38;;;;;;;15.13;100.00;100390.41;4989357;28;20042;-81
2023/08/06 01:30:29;;;;;;;10.43;6.68;;;;;;;15.13;100.00;100398.84;4972717;28;20609;-81
2023/08/06 01:33:03;;;;;;;7.57;5.50;;;;;;;15.00;100.00;100386.53;4986421;28;20061;-81
2023/08/06 01:35:30;;;;;;;9.68;6.28;;;;;;;15.09;100.00;100395.28;4980518;28;20030;-81
2023/08/06 01:37:56;;;;;;;10.40;6.07;;;;;;;15.24;100.00;100388.28;4983057;28;20034;-81
2023/08/06 01:40:23;;;;;;;7.10;5.32;;;;;;;15.29;100.00;100378.53;4985580;28;20033;-81
2023/08/06 01:42:48;;;;;;;6.55;4.95;;;;;;;15.35;100.00;100392.97;4994449;28;20029;-81
2023/08/06 01:45:14;;;;;;;6.55;5.30;;;;;;;14.95;100.00;100387.03;4981109;28;20038;-81
2023/08/06 01:47:40;;;;;;;9.02;6.25;;;;;;;15.06;100.00;100390.50;4986431;28;20041;-81
2023/08/06 01:50:06;;;;;;;10.45;5.97;;;;;;;15.07;100.00;100380.81;4976156;28;20463;-81
2023/08/06 01:52:31;;;;;;;11.35;6.07;;;;;;;15.14;100.00;100377.91;4988294;28;20124;-81
2023/08/06 01:54:57;;;;;;;9.98;6.10;;;;;;;15.25;100.00;100386.25;4974897;28;20491;-81
2023/08/06 01:57:22;;;;;;;10.77;5.88;;;;;;;15.20;100.00;100381.88;4979242;28;20527;-81
2023/08/06 01:59:48;;;;;;;9.95;7.00;;;;;;;15.17;100.00;100374.25;4984969;28;20034;-81
2023/08/06 02:02:13;;;;;;;9.05;6.22;;;;;;;15.10;100.00;100391.25;4986588;28;20026;-82
2023/08/06 02:04:39;;;;;;;9.57;6.00;;;;;;;14.89;100.00;100388.69;4982810;28;20479;-82
2023/08/06 02:07:04;;;;;;;9.60;6.28;;;;;;;14.83;100.00;100368.63;4984412;28;20027;-82
2023/08/06 02:09:29;;;;;;;9.70;5.57;;;;;;;15.03;100.00;100385.69;4980819;28;22189;-82
2023/08/06 02:11:55;;;;;;;11.77;6.45;;;;;;;15.08;100.00;100388.06;4973104;28;20113;-82
2023/08/06 02:14:20;;;;;;;10.35;7.43;;;;;;;15.25;100.00;100387.03;4975730;28;20043;-82
2023/08/06 02:16:46;;;;;;;8.43;5.82;;;;;;;15.25;100.00;100381.41;4982844;28;20029;-81
2023/08/06 02:19:12;;;;;;;9.07;6.25;;;;;;;15.20;100.00;100379.06;4977471;28;20631;-82
2023/08/06 02:21:38;;;;;;;10.38;5.60;;;;;;;14.96;100.00;100352.75;4991238;28;20084;-82
2023/08/06 02:24:05;;;;;;;10.48;6.82;;;;;;;14.90;100.00;100348.00;4982671;28;20413;-81
2023/08/06 02:26:30;;;;;;;8.98;6.30;;;;;;;15.06;100.00;100358.69;4980814;28;20495;-82
2023/08/06 02:28:55;;;;;;;10.18;6.63;;;;;;;15.11;100.00;100369.50;4985308;28;20117;-81
2023/08/06 02:31:21;;;;;;;11.80;7.15;;;;;;;15.08;100.00;100359.09;4988558;28;20036;-82
2023/08/06 02:33:46;;;;;;;9.88;6.72;;;;;;;14.92;100.00;100374.53;4991330;28;20026;-82
2023/08/06 02:36:12;;;;;;;10.25;6.40;;;;;;;14.97;100.00;100353.56;4969602;28;20073;-81
2023/08/06 02:38:37;;;;;;;10.77;6.32;;;;;;;15.08;100.00;100373.19;4988849;28;20125;-82
2023/08/06 02:41:04;;;;;;;9.02;6.22;;;;;;;15.02;100.00;100353.09;4985824;28;20030;-82
2023/08/06 02:43:29;;;;;;;9.70;5.50;;;;;;;14.90;100.00;100348.81;4980149;28;20513;-82
2023/08/06 02:45:59;;;;;;;16.17;8.27;;;;;;;14.76;100.00;100344.16;4974574;28;20022;-82
2023/08/06 02:48:25;;;;;;;12.05;6.93;;;;;;;14.98;100.00;100363.63;4989442;28;20034;-82
2023/08/06 02:50:51;;;;;;;8.60;6.53;;;;;;;14.95;100.00;100356.03;4971980;28;20472;-82
2023/08/06 02:53:16;;;;;;;12.82;7.40;;;;;;;14.73;100.00;100330.88;4972501;28;20026;-82
2023/08/06 02:55:48;;;;;;;8.15;5.35;;;;;;;14.98;100.00;100355.97;4986813;28;20565;-82
2023/08/06 02:58:17;;;;;;;11.97;6.67;;;;;;;14.89;100.00;100340.78;4989163;28;20087;-82
2023/08/06 03:00:43;;;;;;;9.60;6.90;;;;;;;14.91;100.00;100358.06;4980185;28;20365;-82
2023/08/06 03:03:09;;;;;;;10.98;6.88;;;;;;;14.99;100.00;100346.28;4980979;28;20101;-81
2023/08/06 03:05:34;;;;;;;10.05;5.78;;;;;;;14.94;100.00;100334.69;4985725;28;20480;-81
2023/08/06 03:08:00;;;;;;;8.43;6.10;;;;;;;15.00;100.00;100327.34;4972778;28;20042;-81
2023/08/06 03:10:26;;;;;;;10.60;7.53;;;;;;;14.87;100.00;100343.22;4987025;28;20490;-81
2023/08/06 03:12:51;;;;;;;12.45;7.45;;;;;;;14.86;100.00;100341.63;4985707;28;20075;-82
2023/08/06 03:15:17;;;;;;;11.40;7.05;;;;;;;14.89;100.00;100343.59;4986847;28;20042;-82
2023/08/06 03:17:44;;;;;;;15.70;7.57;;;;;;;15.05;100.00;100346.59;5001383;28;20034;-82
2023/08/06 03:20:09;;;;;;;11.45;7.53;;;;;;;15.01;100.00;100337.41;4984679;28;20018;-81
2023/08/06 03:22:35;;;;;;;8.73;6.72;;;;;;;15.01;100.00;100348.66;4975490;28;20034;-82
2023/08/06 03:25:02;;;;;;;8.18;5.88;;;;;;;14.94;100.00;100334.69;4979972;28;20027;-82
2023/08/06 03:27:27;;;;;;;9.38;6.15;;;;;;;15.12;100.00;100337.28;4993330;28;20026;-82
2023/08/06 03:29:53;;;;;;;14.95;6.70;;;;;;;15.16;100.00;100341.66;4980770;28;20038;-81
2023/08/06 03:32:18;;;;;;;7.95;5.72;;;;;;;15.06;100.00;100333.34;4994186;28;20040;-82
2023/08/06 03:34:44;;;;;;;9.32;6.30;;;;;;;15.01;100.00;100332.59;4974385;28;20022;-82
2023/08/06 03:37:09;;;;;;;9.15;6.13;;;;;;;15.25;100.00;100363.69;4986953;28;20566;-82
2023/08/06 03:39:34;;;;;;;11.40;5.45;;;;;;;15.18;100.00;100355.34;4985609;28;20069;-82
2023/08/06 03:42:00;;;;;;;16.52;7.65;;;;;;;15.20;100.00;100350.88;4978316;28;20026;-81
2023/08/06 03:44:28;;;;;;;10.48;6.30;;;;;;;15.00;100.00;100341.44;4986006;28;20030;-81
2023/08/06 03:46:53;;;;;;;13.10;7.90;;;;;;;14.86;100.00;100353.69;4987685;28;20080;-81
2023/08/06 03:49:19;;;;;;;15.55;7.75;;;;;;;14.75;100.00;100339.72;4981087;28;20505;-81
2023/08/06 03:51:44;;;;;;;13.98;7.60;;;;;;;14.88;100.00;100347.63;4972092;28;20073;-81
2023/08/06 03:54:10;;;;;;;9.75;6.95;;;;;;;14.87;100.00;100335.56;4980803;28;20052;-81
2023/08/06 03:56:35;;;;;;;11.18;6.78;;;;;;;15.00;100.00;100335.81;4975768;28;20018;-81
2023/08/06 03:59:01;;;;;;;11.80;7.93;;;;;;;14.78;100.00;100336.06;4978600;28;20521;-80
2023/08/06 04:01:26;;;;;;;10.65;6.53;;;;;;;14.97;100.00;100342.31;4971955;28;20038;-81
2023/08/06 04:03:52;;;;;;;13.07;7.55;;;;;;;15.16;100.00;100361.38;4973320;28;20039;-81
2023/08/06 04:06:17;;;;;;;12.63;7.07;;;;;;;15.07;100.00;100347.00;4981468;28;20425;-81
2023/08/06 04:08:42;;;;;;;10.98;7.38;;;;;;;15.05;100.00;100335.34;4978573;28;20029;-81
2023/08/06 04:11:08;;;;;;;8.73;6.28;;;;;;;15.15;100.00;100339.25;4982558;28;20118;-81
2023/08/06 04:13:33;;;;;;;9.88;6.88;;;;;;;15.10;100.00;100329.25;4973328;28;20054;-81
2023/08/06 04:16:02;;;;;;;13.00;8.68;;;;;;;15.12;100.00;100349.34;4969045;28;20122;-81
2023/08/06 04:18:28;;;;;;;11.32;7.30;;;;;;;15.03;100.00;100334.97;4984975;28;20029;-81
2023/08/06 04:20:55;;;;;;;12.02;7.43;;;;;;;15.04;100.00;100342.22;4981812;28;20033;-81
2023/08/06 04:23:20;;;;;;;12.02;6.63;;;;;;;15.19;100.00;100349.25;4979310;28;20448;-81
2023/08/06 04:25:46;;;;;;;10.75;7.60;;;;;;;15.16;100.00;100354.97;4977311;28;20023;-81
2023/08/06 04:28:11;;;;;;;11.85;6.60;;;;;;;15.19;100.00;100360.53;4981443;28;20257;-82
2023/08/06 04:30:37;;;;;;;10.98;7.38;;;;;;;15.16;100.00;100344.47;4981554;28;20446;-82
2023/08/06 04:33:03;;;;;;;11.02;7.07;;;;;;;15.05;100.00;100343.78;4985065;28;20029;-81
2023/08/06 04:35:29;;;;;;;11.40;7.20;;;;;;;15.11;100.00;100341.31;4982005;28;20022;-81
2023/08/06 04:37:54;;;;;;;10.80;7.28;;;;;;;15.11;100.00;100350.56;4986712;28;20117;-81
2023/08/06 04:40:19;;;;;;;10.90;7.57;;;;;;;15.07;100.00;100358.25;4982886;28;20022;-82
2023/08/06 04:42:45;;;;;;;13.18;7.55;;;;;;;14.99;100.00;100339.88;4983666;28;20141;-81
2023/08/06 04:45:10;;;;;;;13.15;7.65;;;;;;;15.13;100.00;100356.56;4972996;28;20108;-82
2023/08/06 04:47:37;;;;;;;10.15;7.07;;;;;;;15.09;100.00;100355.81;4991546;28;20032;-82
2023/08/06 04:50:03;;;;;;;12.07;7.18;;;;;;;14.98;100.00;100343.88;4982710;28;20571;-82
2023/08/06 04:52:28;;;;;;;10.38;6.57;;;;;;;15.04;100.00;100354.28;4988016;28;20026;-81
2023/08/06 04:54:54;;;;;;;12.27;7.07;;;;;;;15.16;100.00;100372.66;4980042;28;20026;-82
2023/08/06 04:57:20;;;;;;;9.82;6.93;;;;;;;15.07;100.00;100357.47;4990766;28;20121;-81
2023/08/06 04:59:45;;;;;;;12.48;8.18;;;;;;;15.06;100.00;100355.88;4988774;28;20227;-82
2023/08/06 05:02:11;;;;;;;12.88;7.97;;;;;;;15.11;100.00;100361.84;4988985;28;20088;-82
2023/08/06 05:04:36;;;;;;;10.40;7.78;;;;;;;15.19;100.00;100371.81;4989477;28;20044;-81
2023/08/06 05:07:02;;;;;;;13.80;7.78;;;;;;;15.24;100.00;100373.34;4986900;28;20029;-82
2023/08/06 05:09:27;;;;;;;13.52;8.48;;;;;;;15.09;100.00;100366.31;4988324;28;20505;-82
2023/08/06 05:11:53;;;;;;;14.90;8.48;;;;;;;15.09;100.00;100375.56;4985734;28;20037;-81
2023/08/06 05:14:18;;;;;;;14.73;9.27;;;;;;;14.97;100.00;100354.38;4988925;28;20046;-82
2023/08/06 05:16:44;;;;;;;13.52;8.73;;;;;;;15.20;100.00;100373.41;4971618;28;20522;-82
2023/08/06 05:19:09;;;;;;;10.23;7.40;;;;;;;15.27;100.00;100374.56;4987449;28;20030;-82
2023/08/06 05:21:34;;;;;;;11.88;7.20;;;;;;;15.09;100.00;100355.81;5003579;28;20097;-82
2023/08/06 05:24:00;;;;;;;11.25;6.93;;;;;;;15.22;100.00;100382.25;4988358;28;20474;-82
2023/08/06 05:26:25;;;;;;;11.90;7.68;;;;;;;15.09;100.00;100369.13;4987992;28;20033;-82
2023/08/06 05:28:51;;;;;;;11.10;7.28;;;;;;;15.19;100.00;100388.72;4987198;28;20538;-82
2023/08/06 05:31:16;;;;;;;10.38;7.20;;;;;;;15.28;100.00;100387.41;4988101;28;20467;-82
2023/08/06 05:33:42;;;;;;;15.73;8.32;;;;;;;15.33;100.00;100378.50;4985170;28;20034;-82
2023/08/06 05:36:07;;;;;;;13.02;8.43;;;;;;;15.25;100.00;100387.03;4989775;28;20118;-82
2023/08/06 05:38:33;;;;;;;10.05;6.95;;;;;;;15.22;100.00;100385.06;4987981;28;20037;-82
2023/08/06 05:40:58;;;;;;;9.48;6.70;;;;;;;15.21;100.00;100385.50;4989190;28;20328;-81
2023/08/06 05:43:23;;;;;;;13.10;7.97;;;;;;;15.28;100.00;100378.94;4989066;28;20528;-82
2023/08/06 05:45:52;;;;;;;10.93;7.55;;;;;;;15.30;100.00;100388.59;4985996;28;20038;-82
2023/08/06 05:48:18;;;;;;;12.02;7.03;;;;;;;15.36;100.00;100388.91;4989838;28;20106;-82
2023/08/06 05:50:43;;;;;;;12.20;7.07;;;;;;;15.28;100.00;100384.59;4989704;28;20128;-82
2023/08/06 05:53:09;;;;;;;10.93;7.15;;;;;;;15.36;100.00;100391.75;4985404;28;20026;-82
2023/08/06 05:55:35;;;;;;;10.80;7.63;;;;;;;15.19;100.00;100377.44;4989655;28;20026;-82
2023/08/06 05:58:01;;;;;;;12.52;8.05;;;;;;;15.39;100.00;100404.97;4984768;28;20065;-82
2023/08/06 06:00:26;;;;;;;12.80;7.65;;;;;;;15.36;100.00;100397.38;4971273;28;20038;-82
2023/08/06 06:02:53;;;;;;;12.77;7.32;;;;;;;15.23;100.00;100388.69;4981468;28;20040;-82
2023/08/06 06:05:18;;;;;;;13.23;8.10;;;;;;;15.35;100.00;100402.22;4989034;28;20042;-82
2023/08/06 06:07:44;;;;;;;12.95;7.78;;;;;;;15.35;100.00;100405.06;4986208;28;20038;-82
2023/08/06 06:10:09;;;;;;;12.68;7.45;;;;;;;15.39;100.00;100402.16;4987813;28;20026;-82
2023/08/06 06:12:35;;;;;;;13.70;7.57;;;;;;;15.41;100.00;100405.34;4989142;28;20029;-81
2023/08/06 06:15:00;;;;;;;9.75;7.32;;;;;;;15.32;100.00;100402.25;4974586;28;20455;-82
2023/08/06 06:17:29;;;;;;;14.45;9.10;;;;;;;15.34;100.00;100416.75;4975782;28;20479;-81
2023/08/06 06:19:55;;;;;;;16.40;8.25;;;;;;;15.30;100.00;100397.03;4980300;28;20030;-82
2023/08/06 06:22:20;;;;;;;13.52;7.55;;;;;;;15.39;100.00;100419.09;4979896;28;20049;-82
2023/08/06 06:24:46;;;;;;;14.35;8.27;;;;;;;15.36;100.00;100414.31;4988655;28;20038;-82
2023/08/06 06:27:11;;;;;;;11.63;7.07;;;;;;;15.42;100.00;100421.06;4976342;28;20133;-82
2023/08/06 06:29:36;;;;;;;13.52;7.70;;;;;;;15.51;100.00;100412.88;4992271;28;20029;-82
2023/08/06 06:32:02;;;;;;;14.55;8.93;;;;;;;15.55;100.00;100412.84;4981100;28;20027;-82
2023/08/06 06:34:28;;;;;;;11.25;7.63;;;;;;;15.45;100.00;100397.66;4986346;28;20037;-81
2023/08/06 06:36:54;;;;;;;14.25;8.32;;;;;;;15.50;100.00;100402.03;4974376;28;20030;-81
2023/08/06 06:39:21;;;;;;;9.70;7.50;;;;;;;15.31;100.00;100403.50;4982421;28;20018;-82
2023/08/06 06:41:46;;;;;;;15.13;8.55;;;;;;;15.53;100.00;100418.91;4985397;28;20462;-82
2023/08/06 06:44:11;;;;;;;16.77;8.95;;;;;;;15.54;100.00;100419.72;4975840;28;20125;-81
2023/08/06 06:46:37;;;;;;;11.35;7.93;;;;;;;15.45;100.00;100406.13;4976015;28;20026;-82
2023/08/06 06:49:02;;;;;;;11.90;8.02;;;;;;;15.61;100.00;100426.06;4982737;28;20037;-82
2023/08/06 06:51:28;;;;;;;14.75;8.88;;;;;;;15.50;100.00;100413.31;4983735;28;20028;-82
2023/08/06 06:53:53;;;;;;;15.93;9.85;;;;;;;15.56;100.00;100423.72;4990702;28;20037;-82
2023/08/06 06:56:18;;;;;;;11.80;7.75;;;;;;;15.67;100.00;100420.75;4989968;28;20034;-82
2023/08/06 06:58:44;;;;;;;13.38;8.30;;;;;;;15.72;100.00;100420.28;4987709;28;20468;-82
2023/08/06 07:01:11;;;;;;;9.88;7.47;;;;;;;15.70;100.00;100416.28;4986943;28;20030;-82
2023/08/06 07:03:37;;;;;;;11.90;8.02;;;;;;;15.59;100.00;100427.69;4987849;28;20033;-82
2023/08/06 07:06:03;;;;;;;14.45;9.23;;;;;;;15.57;100.00;100427.31;4971834;28;20476;-82
2023/08/06 07:08:29;;;;;;;15.85;9.15;;;;;;;15.51;100.00;100432.63;4987110;28;20076;-82
2023/08/06 07:11:06;;;;;;;16.50;9.70;;;;;;;15.50;100.00;100427.44;4986960;28;20478;-82
2023/08/06 07:13:32;;;;;;;14.02;8.50;;;;;;;15.59;100.00;100419.25;4981314;28;20667;-82
2023/08/06 07:15:58;;;;;;;13.02;9.18;;;;;;;15.55;100.00;100427.75;4970345;28;20388;-82
2023/08/06 07:18:24;;;;;;;11.52;7.07;;;;;;;15.46;100.00;100424.66;4976366;28;20026;-82
2023/08/06 07:20:54;;;;;;;14.45;8.68;;;;;;;15.31;100.00;100417.59;4987205;28;20557;-81
2023/08/06 07:23:21;;;;;;;8.68;6.40;;;;;;;15.61;100.00;100440.16;4981425;28;20033;-82
2023/08/06 07:25:47;;;;;;;13.45;8.65;;;;;;;15.61;100.00;100425.25;4976743;28;20031;-82
2023/08/06 07:28:13;;;;;;;14.50;10.05;;;;;;;15.51;100.00;100427.00;4986562;28;20397;-82
2023/08/06 07:30:39;;;;;;;18.52;10.35;;;;;;;15.53;100.00;100427.38;4987589;28;20030;-82
2023/08/06 07:33:05;;;;;;;15.32;10.00;;;;;;;15.52;100.00;100422.97;4990046;28;20036;-82
2023/08/06 07:35:32;;;;;;;14.13;8.75;;;;;;;15.69;100.00;100434.44;4987954;28;20026;-82
2023/08/06 07:37:58;;;;;;;16.50;9.23;;;;;;;15.60;100.00;100441.41;4982716;28;20513;-82
2023/08/06 07:40:23;;;;;;;14.88;10.35;;;;;;;15.53;100.00;100435.03;4985528;28;20022;-82
2023/08/06 07:42:48;;;;;;;12.52;8.13;;;;;;;15.54;100.00;100440.25;4986825;28;20033;-82
2023/08/06 07:45:14;;;;;;;15.35;9.02;;;;;;;15.66;100.00;100452.97;4978686;28;20081;-82
2023/08/06 07:47:40;;;;;;;16.55;10.02;;;;;;;15.62;100.00;100450.22;4978729;28;20081;-82
2023/08/06 07:50:06;;;;;;;15.85;9.20;;;;;;;15.64;100.00;100444.97;4976101;28;20034;-82
2023/08/06 07:52:31;;;;;;;15.32;9.55;;;;;;;15.55;100.00;100435.41;4979321;28;20069;-82
2023/08/06 07:54:57;;;;;;;14.02;9.10;;;;;;;15.63;100.00;100440.53;4979601;28;20044;-82
2023/08/06 07:57:22;;;;;;;15.95;9.55;;;;;;;15.62;100.00;100444.59;4979244;28;20037;-82
2023/08/06 07:59:47;;;;;;;19.50;11.95;;;;;;;15.76;100.00;100448.47;4972731;28;20031;-82
2023/08/06 08:02:13;;;;;;;15.18;9.55;;;;;;;15.76;100.00;100443.59;4985982;28;20042;-82
2023/08/06 08:04:38;;;;;;;15.27;10.38;;;;;;;15.87;100.00;100453.94;4973754;28;20033;-82
2023/08/06 08:07:04;;;;;;;19.48;12.13;;;;;;;15.73;100.00;100454.97;4992679;28;20037;-82
2023/08/06 08:09:30;;;;;;;18.80;11.38;;;;;;;15.78;100.00;100454.47;4987140;28;20029;-82
2023/08/06 08:11:55;;;;;;;13.98;9.30;;;;;;;15.77;100.00;100452.88;4986310;28;20095;-82
2023/08/06 08:14:20;;;;;;;17.17;11.48;;;;;;;15.67;100.00;100442.53;4983130;28;20058;-82
2023/08/06 08:16:46;;;;;;;19.50;10.50;;;;;;;15.64;100.00;100456.25;4985233;28;20103;-83
2023/08/06 08:19:11;;;;;;;18.42;10.60;;;;;;;15.80;100.00;100464.13;4980136;28;20026;-82
2023/08/06 08:21:37;;;;;;;14.82;10.93;;;;;;;15.77;100.00;100461.34;4983931;28;20056;-82
2023/08/06 08:24:04;;;;;;;16.80;10.18;;;;;;;15.68;100.00;100430.78;4983552;28;20038;-82
2023/08/06 08:26:29;;;;;;;12.80;9.38;;;;;;;15.68;100.00;100446.94;4982571;28;20526;-82
2023/08/06 08:28:56;;;;;;;16.15;10.70;;;;;;;15.78;100.00;100457.31;4993836;28;20030;-82
2023/08/06 08:31:22;;;;;;;17.13;10.07;;;;;;;15.87;100.00;100439.84;4990943;28;20437;-82
2023/08/06 08:33:47;;;;;;;18.30;8.80;;;;;;;15.87;100.00;100449.09;4985100;28;20122;-82
2023/08/06 08:36:13;;;;;;;17.55;10.32;;;;;;;16.03;100.00;100463.38;4984214;28;20022;-82
2023/08/06 08:38:38;;;;;;;14.88;9.15;;;;;;;15.99;100.00;100465.47;4979061;28;20034;-83
2023/08/06 08:41:04;;;;;;;18.67;11.43;;;;;;;15.94;100.00;100460.31;4978581;28;20030;-82
2023/08/06 08:43:30;;;;;;;14.43;9.55;;;;;;;15.92;100.00;100474.03;4981762;28;20177;-82
2023/08/06 08:45:58;;;;;;;18.63;11.38;;;;;;;15.98;100.00;100463.06;4987305;28;20026;-82
2023/08/06 08:48:24;;;;;;;18.25;11.50;;;;;;;15.83;100.00;100445.53;4998218;28;20429;-82
2023/08/06 08:50:50;;;;;;;17.13;10.00;;;;;;;16.17;100.00;100470.03;4992954;28;20430;-82
2023/08/06 08:53:17;;;;;;;18.58;11.27;;;;;;;16.04;100.00;100467.81;4991293;28;20117;-82
2023/08/06 08:55:47;;;;;;;18.00;11.30;;;;;;;16.01;100.00;100462.22;4984254;28;20159;-82
2023/08/06 08:58:13;;;;;;;15.57;9.52;;;;;;;16.22;100.00;100464.72;4978344;28;20504;-82
2023/08/06 09:00:41;;;;;;;14.43;10.18;;;;;;;16.16;100.00;100465.63;4997833;28;20027;-82
2023/08/06 09:03:07;;;;;;;16.15;11.88;;;;;;;16.25;100.00;100448.94;4986443;28;20037;-82
2023/08/06 09:05:33;;;;;;;15.18;10.50;;;;;;;16.36;100.00;100472.19;4989424;28;20041;-82
2023/08/06 09:08:05;;;;;;;14.55;9.10;;;;;;;16.49;100.00;100477.22;4985146;28;20546;-82
2023/08/06 09:10:36;;;;;;;15.13;9.73;;;;;;;16.52;100.00;100484.84;4981586;28;20037;-82
2023/08/06 09:13:03;;;;;;;14.75;9.80;;;;;;;16.48;100.00;100470.75;4988253;28;20686;-82
2023/08/06 09:15:29;;;;;;;15.00;10.50;;;;;;;16.49;100.00;100483.69;4980309;28;20097;-83
2023/08/06 09:17:55;;;;;;;14.45;8.38;;;;;;;16.54;100.00;100469.06;4978408;28;20027;-82
2023/08/06 09:20:20;;;;;;;14.55;9.50;;;;;;;16.51;100.00;100466.28;4986993;28;20039;-82
2023/08/06 09:22:47;;;;;;;11.15;8.40;;;;;;;16.54;100.00;100473.91;4987946;28;20080;-82
2023/08/06 09:25:21;;;;;;;11.23;8.00;;;;;;;16.64;100.00;100490.69;4989031;28;20535;-82
2023/08/06 09:27:47;;;;;;;14.27;9.65;;;;;;;16.68;100.00;100496.28;4986477;28;20483;-82
2023/08/06 09:30:30;;;;;;;15.18;10.07;;;;;;;16.65;100.00;100489.47;4990119;28;20131;-82
2023/08/06 09:32:55;;;;;;;;;;;;;;;16.81;100.00;100494.47;4992640;28;20033;-82
2023/08/06 09:35:21;;;;;;;10.85;7.90;;;;;;;16.74;100.00;100488.91;5006934;28;19909;-82
2023/08/06 09:37:47;;;;;;;12.35;8.55;;;;;;;16.72;100.00;100494.19;4994912;28;20088;-82
2023/08/06 09:40:26;;;;;;;9.85;7.95;;;;;;;16.90;100.00;100505.19;4978296;28;20027;-82
2023/08/06 09:42:52;;;;;;;14.68;9.00;;;;;;;16.85;100.00;100495.19;4995793;28;20065;-82
2023/08/06 09:45:17;;;;;;;10.73;7.53;;;;;;;16.85;100.00;100505.72;4989804;28;20040;-83
2023/08/06 09:47:43;;;;;;;9.98;7.68;;;;;;;16.75;100.00;100496.16;4988013;28;20446;-83
2023/08/06 09:50:18;;;;;;;12.70;7.75;;;;;;;16.76;100.00;100509.06;4991784;28;20030;-83
2023/08/06 09:52:44;;;;;;;13.50;8.63;;;;;;;16.84;100.00;100509.75;4983656;28;20410;-83
2023/08/06 09:55:14;;;;;;;11.32;8.15;;;;;;;16.83;100.00;100500.47;4979234;28;20019;-82
2023/08/06 09:57:43;;;;;;;11.75;8.55;;;;;;;16.96;100.00;100505.53;4986916;28;20019;-83
2023/08/06 10:00:10;;;;;;;8.60;6.95;;;;;;;17.06;100.00;100510.19;4975607;28;20062;-83
2023/08/06 10:02:39;;;;;;;12.23;9.13;;;;;;;17.00;100.00;100492.13;4978326;28;20031;-83
2023/08/06 10:05:06;;;;;;;12.27;8.75;;;;;;;17.27;100.00;100518.25;4984381;28;20479;-83
2023/08/06 10:07:32;;;;;;;9.05;7.43;;;;;;;17.36;100.00;100512.03;4984563;28;20022;-83
2023/08/06 10:09:59;;;;;;;13.35;9.35;;;;;;;17.37;100.00;100508.00;4987663;28;20114;-83
2023/08/06 10:12:27;;;;;;;12.75;9.25;;;;;;;17.41;100.00;100514.38;4991942;28;20032;-83
2023/08/06 10:14:55;;;;;;;12.52;9.02;;;;;;;17.49;100.00;100515.00;4988892;28;20569;-83
2023/08/06 10:17:23;;;;;;;14.85;8.48;;;;;;;17.40;100.00;100506.31;4990535;28;20024;-82
2023/08/06 10:19:50;;;;;;;11.15;7.88;;;;;;;17.41;100.00;100497.41;4988542;28;20026;-83
2023/08/06 10:22:19;;;;;;;10.88;8.10;;;;;;;17.50;100.00;100513.81;4989701;28;20030;-82
2023/08/06 10:24:47;;;;;;;8.68;7.25;;;;;;;17.57;100.00;100519.31;4986815;28;20403;-83
2023/08/06 10:27:13;;;;;;;11.85;8.98;;;;;;;17.54;100.00;100506.03;4977745;28;20046;-82
2023/08/06 10:29:38;;;;;;;12.07;8.55;;;;;;;17.63;100.00;100514.72;4980492;28;20444;-83
2023/08/06 10:32:07;;;;;;;9.73;8.27;;;;;;;17.71;100.00;100514.56;4966211;28;20058;-82
2023/08/06 10:34:56;;;;;;;9.23;7.55;;;;;;;17.77;100.00;100510.81;4983290;28;20027;-82
2023/08/06 10:37:23;;;;;;;12.90;9.18;;;;;;;17.65;100.00;100509.44;4978155;28;20029;-83
2023/08/06 10:39:52;;;;;;;11.02;8.30;;;;;;;17.76;100.00;100512.03;4982375;28;20554;-83
2023/08/06 10:42:36;;;;;;;12.70;8.93;;;;;;;17.85;100.00;100514.31;4979745;28;20070;-83
2023/08/06 10:45:11;;;;;;;11.65;8.48;;;;;;;17.97;100.00;100512.84;4992049;28;20123;-83
2023/08/06 10:47:40;;;;;;;10.60;7.93;;;;;;;17.93;100.00;100507.25;4987865;28;20030;-83
2023/08/06 10:50:08;;;;;;;10.00;8.05;;;;;;;18.25;100.00;100505.75;4988180;28;20038;-82
2023/08/06 10:52:34;;;;;;;12.05;7.30;;;;;;;18.48;100.00;100505.56;4988531;28;20030;-82
2023/08/06 10:54:59;;;;;;;10.98;8.80;;;;;;;18.85;100.00;100512.00;4974517;28;20105;-82
2023/08/06 10:57:25;;;;;;;8.52;7.15;;;;;;;18.65;100.00;100499.91;4975204;28;20449;-82
2023/08/06 10:59:51;;;;;;;11.57;7.90;;;;;;;18.48;100.00;100499.91;4973311;28;20232;-82
2023/08/06 11:02:16;;;;;;;10.10;7.07;;;;;;;18.25;100.00;100498.03;4979122;28;20019;-82
2023/08/06 11:04:42;;;;;;;10.80;7.63;;;;;;;18.17;100.00;100501.47;4974337;28;20470;-82
2023/08/06 11:07:07;;;;;;;12.25;7.10;;;;;;;18.12;100.00;100508.47;4979820;28;20061;-83
2023/08/06 11:09:32;;;;;;;11.70;7.97;;;;;;;18.13;100.00;100503.59;4975251;28;20507;-83